createdAt,value
2022-12-31T00:01:25.127Z,45.90
2022-12-31T00:03:38.688Z,43.40
2022-12-31T00:05:50.952Z,36.60
2022-12-31T00:08:03.040Z,39.80
2022-12-31T00:10:14.833Z,41.60
2022-12-31T00:12:26.465Z,33.80
2022-12-31T00:14:38.616Z,41.00
2022-12-31T00:16:50.271Z,41.10
2022-12-31T00:19:03.321Z,38.20
2022-12-31T00:21:17.066Z,42.70
2022-12-31T00:23:28.822Z,37.10
2022-12-31T00:25:40.374Z,36.40
2022-12-31T00:27:51.981Z,41.50
2022-12-31T00:30:05.711Z,38.00
2022-12-31T00:32:17.348Z,35.30
2022-12-31T00:34:29.337Z,32.60
2022-12-31T00:36:42.791Z,32.70
2022-12-31T00:38:56.535Z,36.00
2022-12-31T00:41:09.130Z,31.00
2022-12-31T00:43:21.651Z,28.40
2022-12-31T00:45:33.506Z,34.60
2022-12-31T00:47:45.601Z,30.40
2022-12-31T00:49:57.392Z,28.60
2022-12-31T00:52:09.283Z,33.40
2022-12-31T00:54:20.898Z,29.10
2022-12-31T00:56:33.067Z,32.70
2022-12-31T00:58:45.782Z,29.30
2022-12-31T01:00:57.680Z,26.60
2022-12-31T01:03:10.169Z,30.70
2022-12-31T01:05:22.175Z,30.70
2022-12-31T01:07:33.860Z,31.10
2022-12-31T01:09:45.855Z,30.10
2022-12-31T01:11:57.952Z,32.60
2022-12-31T01:14:17.218Z,28.00
2022-12-31T01:16:31.158Z,31.00
2022-12-31T01:18:43.055Z,29.60
2022-12-31T01:20:54.841Z,27.00
2022-12-31T01:23:08.062Z,29.90
2022-12-31T01:25:20.171Z,27.30
2022-12-31T01:27:32.074Z,34.10
2022-12-31T01:29:43.740Z,26.40
2022-12-31T01:31:55.697Z,28.90
2022-12-31T01:34:08.754Z,28.50
2022-12-31T01:36:26.772Z,26.40
2022-12-31T01:38:39.714Z,31.50
2022-12-31T01:40:51.713Z,27.10
2022-12-31T01:43:06.151Z,26.60
2022-12-31T01:45:18.044Z,24.70
2022-12-31T01:47:43.661Z,26.90
2022-12-31T01:50:03.317Z,24.00
2022-12-31T01:52:21.193Z,21.90
2022-12-31T01:54:39.500Z,21.40
2022-12-31T01:56:53.765Z,23.50
2022-12-31T01:59:10.403Z,23.60
2022-12-31T02:01:28.047Z,27.20
2022-12-31T02:03:40.496Z,23.50
2022-12-31T02:05:59.858Z,20.70
2022-12-31T02:08:12.472Z,25.50
2022-12-31T02:10:24.572Z,23.70
2022-12-31T02:12:36.661Z,20.50
2022-12-31T02:14:53.284Z,23.70
2022-12-31T02:17:26.565Z,23.10
2022-12-31T02:19:47.852Z,22.10
2022-12-31T02:22:05.711Z,22.40
2022-12-31T02:24:26.789Z,24.80
2022-12-31T02:27:00.003Z,23.10
2022-12-31T02:29:24.184Z,24.40
2022-12-31T02:31:43.487Z,19.50
2022-12-31T02:34:07.067Z,21.40
2022-12-31T02:36:25.556Z,25.00
2022-12-31T02:38:41.984Z,24.80
2022-12-31T02:40:54.984Z,25.10
2022-12-31T02:43:07.388Z,21.20
2022-12-31T02:45:27.471Z,23.60
2022-12-31T02:48:10.903Z,22.70
2022-12-31T02:50:22.895Z,23.90
2022-12-31T02:52:54.295Z,22.60
2022-12-31T02:55:20.374Z,24.50
2022-12-31T02:57:41.182Z,22.70
2022-12-31T03:00:15.184Z,21.30
2022-12-31T03:02:31.207Z,25.80
2022-12-31T03:04:51.667Z,23.40
2022-12-31T03:07:12.874Z,20.60
2022-12-31T03:09:24.766Z,21.00
2022-12-31T03:11:55.528Z,21.60
2022-12-31T03:14:07.598Z,22.00
2022-12-31T03:16:19.119Z,22.10
2022-12-31T03:19:00.467Z,21.90
2022-12-31T03:21:32.432Z,25.10
2022-12-31T03:24:03.681Z,20.70
2022-12-31T03:26:15.979Z,24.20
2022-12-31T03:28:30.136Z,21.40
2022-12-31T03:30:44.586Z,23.60
2022-12-31T03:32:56.886Z,24.20
2022-12-31T03:35:09.790Z,20.90
2022-12-31T03:37:21.988Z,23.20
2022-12-31T03:39:34.092Z,20.30
2022-12-31T03:41:45.909Z,21.20
2022-12-31T03:43:57.795Z,21.50
2022-12-31T03:46:09.695Z,25.90
2022-12-31T03:48:23.405Z,25.70
2022-12-31T03:50:35.909Z,19.90
2022-12-31T03:52:47.796Z,22.50
2022-12-31T03:54:59.691Z,20.50
2022-12-31T03:57:11.484Z,20.70
2022-12-31T03:59:23.267Z,23.60
2022-12-31T04:01:35.073Z,24.30
2022-12-31T04:03:47.363Z,20.00
2022-12-31T04:05:59.257Z,21.80
2022-12-31T04:08:10.877Z,22.00
2022-12-31T04:10:23.248Z,17.90
2022-12-31T04:12:35.360Z,21.80
2022-12-31T04:14:47.330Z,22.30
2022-12-31T04:16:59.021Z,20.60
2022-12-31T04:19:11.480Z,21.60
2022-12-31T04:21:23.115Z,20.10
2022-12-31T04:23:35.217Z,18.10
2022-12-31T04:25:47.103Z,18.80
2022-12-31T04:27:59.205Z,17.90
2022-12-31T04:30:13.129Z,19.40
2022-12-31T04:32:25.341Z,22.70
2022-12-31T04:34:37.843Z,20.70
2022-12-31T04:36:49.758Z,20.80
2022-12-31T04:39:02.276Z,19.50
2022-12-31T04:41:17.332Z,19.80
2022-12-31T04:43:29.428Z,18.50
2022-12-31T04:45:41.240Z,19.00
2022-12-31T04:47:53.506Z,19.50
2022-12-31T04:50:06.018Z,20.70
2022-12-31T04:52:17.698Z,20.20
2022-12-31T04:54:29.487Z,19.50
2022-12-31T04:56:41.174Z,18.10
2022-12-31T04:58:52.863Z,22.20
2022-12-31T05:01:06.055Z,20.00
2022-12-31T05:03:19.493Z,19.20
2022-12-31T05:05:31.404Z,17.40
2022-12-31T05:07:43.603Z,18.30
2022-12-31T05:09:55.905Z,17.40
2022-12-31T05:12:07.697Z,19.20
2022-12-31T05:14:19.287Z,20.30
2022-12-31T05:16:30.894Z,18.00
2022-12-31T05:18:42.763Z,17.80
2022-12-31T05:20:54.552Z,18.80
2022-12-31T05:23:07.368Z,16.90
2022-12-31T05:25:19.056Z,16.60
2022-12-31T05:27:31.427Z,18.10
2022-12-31T05:29:43.346Z,17.20
2022-12-31T05:31:55.042Z,18.10
2022-12-31T05:34:06.618Z,17.90
2022-12-31T05:36:18.716Z,16.90
2022-12-31T05:38:30.611Z,18.70
2022-12-31T05:40:42.611Z,18.00
2022-12-31T05:42:54.802Z,16.30
2022-12-31T05:45:07.517Z,17.20
2022-12-31T05:47:19.622Z,16.90
2022-12-31T05:49:31.508Z,18.20
2022-12-31T05:51:43.427Z,18.70
2022-12-31T05:53:55.307Z,19.00
2022-12-31T05:56:07.488Z,17.60
2022-12-31T05:58:19.481Z,17.80
2022-12-31T06:00:31.167Z,17.00
2022-12-31T06:02:43.145Z,20.40
2022-12-31T06:04:55.472Z,15.40
2022-12-31T06:07:07.255Z,16.10
2022-12-31T06:09:19.554Z,23.20
2022-12-31T06:11:31.348Z,16.40
2022-12-31T06:13:44.367Z,16.20
2022-12-31T06:15:56.715Z,18.40
2022-12-31T06:18:09.071Z,15.70
2022-12-31T06:20:21.171Z,18.80
2022-12-31T06:22:33.060Z,29.20
2022-12-31T06:24:44.856Z,28.30
2022-12-31T06:26:56.506Z,40.20
2022-12-31T06:29:09.082Z,28.40
2022-12-31T06:31:20.750Z,22.00
2022-12-31T06:33:33.959Z,30.90
2022-12-31T06:35:45.745Z,70.50
2022-12-31T06:37:57.434Z,51.70
2022-12-31T06:40:10.171Z,51.30
2022-12-31T06:42:22.242Z,31.50
2022-12-31T06:44:34.239Z,18.60
2022-12-31T06:46:46.048Z,19.70
2022-12-31T06:48:58.228Z,16.80
2022-12-31T06:51:17.862Z,17.80
2022-12-31T06:53:29.791Z,19.00
2022-12-31T06:55:45.475Z,17.80
2022-12-31T06:57:57.985Z,18.00
2022-12-31T07:00:11.171Z,19.80
2022-12-31T07:02:49.881Z,21.90
2022-12-31T07:05:02.337Z,26.60
2022-12-31T07:07:34.906Z,30.10
2022-12-31T07:10:14.045Z,24.80
2022-12-31T07:12:48.391Z,23.70
2022-12-31T07:15:09.913Z,19.80
2022-12-31T07:17:33.951Z,15.60
2022-12-31T07:20:05.505Z,18.20
2022-12-31T07:22:17.500Z,20.10
2022-12-31T07:24:29.807Z,19.80
2022-12-31T07:27:11.696Z,17.80
2022-12-31T07:29:27.275Z,22.20
2022-12-31T07:32:00.572Z,21.20
2022-12-31T07:34:18.707Z,19.60
2022-12-31T07:37:02.460Z,22.90
2022-12-31T07:39:21.003Z,23.30
2022-12-31T07:44:19.090Z,22.20
2022-12-31T07:46:36.154Z,18.10
2022-12-31T07:48:49.117Z,19.40
2022-12-31T07:51:01.417Z,21.50
2022-12-31T07:53:14.445Z,19.80
2022-12-31T07:55:26.302Z,21.60
2022-12-31T07:57:53.994Z,21.50
2022-12-31T08:00:11.823Z,19.90
2022-12-31T08:03:04.889Z,20.40
2022-12-31T08:05:25.886Z,17.10
2022-12-31T08:07:53.039Z,14.10
2022-12-31T08:10:17.312Z,15.40
2022-12-31T08:12:34.892Z,18.50
2022-12-31T08:14:48.411Z,15.80
2022-12-31T08:17:00.574Z,16.80
2022-12-31T08:19:32.517Z,16.90
2022-12-31T08:22:18.026Z,17.00
2022-12-31T08:24:59.910Z,18.10
2022-12-31T08:27:28.807Z,17.00
2022-12-31T08:30:03.227Z,17.40
2022-12-31T08:32:26.879Z,17.30
2022-12-31T08:34:50.968Z,20.20
2022-12-31T08:37:38.509Z,21.40
2022-12-31T08:40:07.184Z,21.10
2022-12-31T08:42:40.375Z,21.20
2022-12-31T08:45:09.776Z,19.30
2022-12-31T08:47:38.251Z,16.10
2022-12-31T08:49:50.562Z,20.60
2022-12-31T08:52:04.091Z,17.90
2022-12-31T08:54:16.699Z,17.20
2022-12-31T08:56:59.213Z,23.20
2022-12-31T08:59:46.228Z,20.90
2022-12-31T09:02:19.136Z,21.00
2022-12-31T09:05:16.980Z,19.10
2022-12-31T09:07:37.391Z,24.40
2022-12-31T09:10:46.711Z,19.80
2022-12-31T09:13:13.045Z,18.20
2022-12-31T09:15:42.465Z,17.10
2022-12-31T09:17:54.568Z,17.80
2022-12-31T09:20:14.013Z,16.70
2022-12-31T09:22:25.801Z,15.20
2022-12-31T09:24:38.209Z,18.80
2022-12-31T09:27:08.735Z,18.50
2022-12-31T09:29:39.678Z,19.60
2022-12-31T09:32:29.351Z,17.00
2022-12-31T09:35:11.782Z,17.00
2022-12-31T09:37:51.816Z,16.90
2022-12-31T09:40:28.694Z,21.80
2022-12-31T09:43:06.940Z,18.70
2022-12-31T09:45:31.110Z,14.20
2022-12-31T09:47:43.281Z,29.70
2022-12-31T09:50:34.394Z,17.40
2022-12-31T09:52:52.428Z,16.00
2022-12-31T09:55:08.008Z,18.40
2022-12-31T09:57:27.889Z,34.20
2022-12-31T09:59:43.550Z,20.10
2022-12-31T10:02:17.527Z,25.50
2022-12-31T10:04:42.783Z,16.60
2022-12-31T10:07:30.308Z,13.70
2022-12-31T10:10:30.638Z,12.90
2022-12-31T10:13:14.318Z,15.70
2022-12-31T10:15:54.945Z,13.20
2022-12-31T10:18:44.726Z,13.30
2022-12-31T10:21:34.620Z,13.30
2022-12-31T10:24:14.563Z,16.20
2022-12-31T10:26:52.901Z,14.00
2022-12-31T10:29:33.738Z,14.60
2022-12-31T10:32:13.717Z,17.20
2022-12-31T10:35:01.115Z,12.30
2022-12-31T10:37:19.048Z,11.80
2022-12-31T10:39:50.500Z,17.30
2022-12-31T10:42:25.228Z,17.30
2022-12-31T10:45:04.766Z,33.70
2022-12-31T10:47:49.327Z,26.70
2022-12-31T10:50:26.084Z,21.00
2022-12-31T10:52:59.909Z,17.60
2022-12-31T10:55:33.628Z,15.30
2022-12-31T10:58:03.831Z,16.30
2022-12-31T11:00:22.074Z,14.00
2022-12-31T11:05:11.973Z,16.20
2022-12-31T11:07:42.194Z,13.60
2022-12-31T11:10:26.852Z,14.30
2022-12-31T11:12:53.799Z,12.70
2022-12-31T11:15:22.414Z,32.00
2022-12-31T11:17:46.971Z,22.30
2022-12-31T11:20:36.958Z,17.00
2022-12-31T11:23:09.742Z,14.90
2022-12-31T11:25:30.593Z,16.40
2022-12-31T11:28:10.900Z,25.70
2022-12-31T11:30:23.727Z,22.40
2022-12-31T11:32:51.996Z,17.40
2022-12-31T11:35:37.782Z,15.50
2022-12-31T11:38:11.482Z,18.80
2022-12-31T11:40:42.152Z,14.70
2022-12-31T11:43:16.327Z,86.80
2022-12-31T11:46:02.555Z,69.30
2022-12-31T11:48:33.003Z,202.70
2022-12-31T11:51:18.028Z,175.20
2022-12-31T11:54:13.127Z,33.00
2022-12-31T11:56:37.517Z,189.10
2022-12-31T11:58:52.479Z,180.10
2022-12-31T12:01:12.923Z,138.40
2022-12-31T12:03:25.664Z,157.10
2022-12-31T12:05:40.339Z,129.40
2022-12-31T12:07:53.479Z,97.40
2022-12-31T12:10:20.814Z,157.50
2022-12-31T12:12:42.645Z,203.10
2022-12-31T12:14:55.277Z,137.60
2022-12-31T12:17:13.800Z,83.60
2022-12-31T12:19:30.640Z,69.90
2022-12-31T12:21:47.790Z,64.10
2022-12-31T12:24:06.372Z,58.40
2022-12-31T12:28:45.174Z,118.30
2022-12-31T12:31:03.595Z,115.80
2022-12-31T12:33:20.571Z,155.40
2022-12-31T12:35:34.909Z,112.10
2022-12-31T12:37:46.968Z,142.80
2022-12-31T12:40:02.288Z,63.20
2022-12-31T12:42:14.792Z,86.70
2022-12-31T12:44:26.372Z,61.60
2022-12-31T12:46:52.004Z,64.40
2022-12-31T12:49:04.412Z,67.70
2022-12-31T12:51:55.410Z,319.40
2022-12-31T12:54:25.520Z,640.90
2022-12-31T12:57:00.357Z,406.00
2022-12-31T12:59:24.631Z,91.70
2022-12-31T13:01:46.613Z,77.60
2022-12-31T13:06:56.999Z,122.90
2022-12-31T13:09:16.816Z,80.00
2022-12-31T13:11:28.721Z,96.40
2022-12-31T13:13:59.239Z,95.30
2022-12-31T13:16:14.240Z,45.50
2022-12-31T13:18:57.444Z,24.30
2022-12-31T13:21:18.669Z,17.70
2022-12-31T13:23:57.178Z,12.80
2022-12-31T13:26:24.368Z,15.10
2022-12-31T13:28:39.095Z,11.70
2022-12-31T13:31:01.767Z,12.20
2022-12-31T13:33:24.460Z,28.70
2022-12-31T13:35:44.750Z,30.40
2022-12-31T13:38:07.017Z,16.70
2022-12-31T13:40:30.654Z,21.60
2022-12-31T13:42:54.829Z,33.70
2022-12-31T13:45:16.989Z,14.10
2022-12-31T13:47:52.716Z,11.30
2022-12-31T13:50:29.399Z,11.10
2022-12-31T13:52:48.964Z,14.60
2022-12-31T13:55:09.795Z,13.20
2022-12-31T13:57:34.977Z,10.20
2022-12-31T13:59:51.876Z,14.60
2022-12-31T14:02:27.363Z,15.90
2022-12-31T14:04:46.928Z,22.70
2022-12-31T14:07:08.695Z,11.90
2022-12-31T14:09:25.627Z,18.50
2022-12-31T14:11:50.024Z,21.70
2022-12-31T14:14:18.799Z,29.10
2022-12-31T14:16:50.495Z,25.60
2022-12-31T14:19:14.667Z,27.20
2022-12-31T14:21:41.582Z,25.90
2022-12-31T14:24:13.850Z,18.50
2022-12-31T14:26:39.720Z,37.70
2022-12-31T14:29:04.186Z,14.70
2022-12-31T14:31:30.226Z,17.00
2022-12-31T14:33:58.091Z,19.10
2022-12-31T14:36:24.179Z,19.50
2022-12-31T14:38:51.745Z,52.40
2022-12-31T14:41:15.814Z,54.60
2022-12-31T14:44:12.970Z,53.90
2022-12-31T14:46:25.583Z,58.00
2022-12-31T14:48:56.515Z,74.30
2022-12-31T14:51:09.636Z,100.80
2022-12-31T14:53:26.955Z,43.80
2022-12-31T14:55:41.031Z,32.40
2022-12-31T15:00:36.730Z,38.30
2022-12-31T15:02:51.231Z,23.20
2022-12-31T15:05:14.236Z,29.40
2022-12-31T15:07:40.875Z,50.80
2022-12-31T15:10:21.744Z,78.30
2022-12-31T15:12:55.147Z,145.70
2022-12-31T15:15:33.258Z,77.40
2022-12-31T15:17:59.686Z,74.90
2022-12-31T15:20:18.064Z,33.60
2022-12-31T15:22:48.301Z,28.80
2022-12-31T15:25:01.187Z,19.00
2022-12-31T15:27:37.037Z,30.00
2022-12-31T15:29:49.117Z,57.10
2022-12-31T15:32:05.130Z,27.50
2022-12-31T15:34:30.450Z,21.80
2022-12-31T15:36:53.185Z,32.00
2022-12-31T15:39:10.272Z,28.00
2022-12-31T15:41:36.042Z,46.80
2022-12-31T15:43:55.360Z,26.50
2022-12-31T15:46:20.318Z,28.90
2022-12-31T15:48:43.617Z,30.30
2022-12-31T15:50:58.994Z,49.20
2022-12-31T15:53:27.375Z,31.20
2022-12-31T15:55:46.283Z,29.40
2022-12-31T15:58:06.412Z,16.10
2022-12-31T16:00:22.358Z,27.20
2022-12-31T16:02:43.249Z,27.60
2022-12-31T16:04:57.957Z,26.20
2022-12-31T16:07:12.527Z,43.90
2022-12-31T16:09:29.083Z,42.20
2022-12-31T16:11:42.403Z,38.30
2022-12-31T16:13:55.564Z,34.80
2022-12-31T16:16:26.190Z,44.50
2022-12-31T16:18:42.018Z,47.70
2022-12-31T16:20:54.495Z,23.20
2022-12-31T16:23:21.334Z,31.20
2022-12-31T16:25:34.140Z,51.10
2022-12-31T16:27:54.418Z,25.10
2022-12-31T16:30:24.287Z,31.00
2022-12-31T16:32:41.448Z,22.30
2022-12-31T16:34:56.539Z,21.00
2022-12-31T16:37:22.352Z,42.60
2022-12-31T16:39:37.933Z,19.10
2022-12-31T16:41:51.453Z,18.70
2022-12-31T16:44:04.683Z,18.60
2022-12-31T16:46:29.997Z,19.00
2022-12-31T16:48:48.611Z,17.30
2022-12-31T16:51:01.244Z,13.60
2022-12-31T16:53:17.962Z,17.20
2022-12-31T16:55:36.676Z,15.60
2022-12-31T16:57:58.819Z,14.00
2022-12-31T17:00:21.192Z,19.30
2022-12-31T17:02:39.642Z,16.20
2022-12-31T17:07:42.538Z,13.90
2022-12-31T17:10:08.454Z,15.20
2022-12-31T17:12:24.020Z,14.20
2022-12-31T17:14:48.958Z,13.40
2022-12-31T17:17:07.071Z,13.90
2022-12-31T17:19:46.603Z,13.10
2022-12-31T17:21:59.310Z,12.00
2022-12-31T17:24:13.044Z,14.90
2022-12-31T17:26:37.716Z,18.90
2022-12-31T17:28:53.726Z,15.30
2022-12-31T17:31:25.388Z,16.70
2022-12-31T17:33:37.580Z,17.40
2022-12-31T17:35:55.617Z,12.20
2022-12-31T17:38:23.688Z,17.20
2022-12-31T17:40:54.664Z,15.00
2022-12-31T17:43:06.934Z,15.50
2022-12-31T17:45:21.764Z,15.70
2022-12-31T17:47:41.394Z,15.30
2022-12-31T17:49:54.499Z,22.00
2022-12-31T17:52:14.568Z,18.20
2022-12-31T17:54:26.359Z,18.20
2022-12-31T17:56:38.200Z,17.40
2022-12-31T17:58:52.409Z,16.10
2022-12-31T18:01:08.912Z,17.50
2022-12-31T18:03:20.991Z,21.80
2022-12-31T18:05:32.795Z,24.50
2022-12-31T18:07:44.572Z,18.50
2022-12-31T18:09:58.075Z,19.10
2022-12-31T18:12:14.104Z,17.10
2022-12-31T18:14:25.676Z,19.50
2022-12-31T18:16:37.705Z,18.80
2022-12-31T18:18:49.664Z,23.70
2022-12-31T18:21:04.629Z,20.80
2022-12-31T18:23:46.314Z,16.80
2022-12-31T18:25:58.421Z,20.30
2022-12-31T18:28:11.971Z,20.40
2022-12-31T18:30:24.047Z,18.40
2022-12-31T18:32:38.609Z,24.40
2022-12-31T18:34:51.592Z,25.30
2022-12-31T18:37:15.158Z,20.20
2022-12-31T18:39:31.377Z,18.20
2022-12-31T18:41:49.670Z,18.80
2022-12-31T18:44:01.569Z,18.30
2022-12-31T18:46:15.609Z,17.20
2022-12-31T18:48:27.754Z,15.10
2022-12-31T18:50:40.260Z,14.70
2022-12-31T18:52:52.156Z,16.20
2022-12-31T18:55:25.249Z,19.40
2022-12-31T18:57:37.099Z,16.60
2022-12-31T18:59:49.550Z,15.40
2022-12-31T19:02:03.032Z,17.40
2022-12-31T19:04:27.155Z,16.20
2022-12-31T19:06:46.619Z,17.70
2022-12-31T19:09:06.347Z,13.50
2022-12-31T19:11:36.015Z,14.00
2022-12-31T19:13:50.966Z,15.30
2022-12-31T19:16:05.195Z,16.50
2022-12-31T19:18:23.143Z,36.90
2022-12-31T19:20:40.135Z,27.00
2022-12-31T19:22:55.240Z,22.60
2022-12-31T19:25:38.849Z,25.70
2022-12-31T19:28:02.326Z,18.80
2022-12-31T19:30:27.471Z,23.60
2022-12-31T19:32:48.934Z,18.70
2022-12-31T19:35:00.829Z,22.70
2022-12-31T19:37:16.328Z,21.60
2022-12-31T19:39:30.386Z,25.40
2022-12-31T19:41:44.045Z,24.40
2022-12-31T19:43:56.804Z,25.70
2022-12-31T19:46:13.232Z,23.50
2022-12-31T19:48:32.369Z,36.70
2022-12-31T19:50:48.364Z,30.80
2022-12-31T19:53:00.961Z,21.80
2022-12-31T19:55:16.099Z,21.80
2022-12-31T19:57:28.535Z,22.40
2022-12-31T19:59:41.348Z,18.50
2022-12-31T20:02:03.316Z,19.50
2022-12-31T20:04:18.458Z,17.40
2022-12-31T20:06:33.031Z,17.00
2022-12-31T20:08:55.372Z,19.50
2022-12-31T20:11:14.210Z,19.70
2022-12-31T20:13:29.480Z,20.50
2022-12-31T20:15:48.467Z,23.40
2022-12-31T20:18:01.691Z,23.00
2022-12-31T20:20:17.362Z,22.20
2022-12-31T20:22:30.314Z,23.40
2022-12-31T20:24:43.785Z,23.60
2022-12-31T20:26:57.949Z,20.80
2022-12-31T20:29:12.730Z,19.00
2022-12-31T20:31:27.268Z,20.90
2022-12-31T20:33:41.993Z,22.20
2022-12-31T20:35:54.178Z,19.90
2022-12-31T20:38:07.795Z,21.80
2022-12-31T20:40:20.578Z,22.00
2022-12-31T20:42:33.767Z,22.20
2022-12-31T20:44:46.395Z,20.40
2022-12-31T20:46:59.605Z,19.00
2022-12-31T20:49:14.798Z,20.30
2022-12-31T20:51:30.365Z,18.70
2022-12-31T20:53:48.849Z,20.40
2022-12-31T20:56:10.121Z,23.00
2022-12-31T20:58:24.640Z,23.80
2022-12-31T21:00:37.693Z,23.60
2022-12-31T21:03:00.659Z,27.60
2022-12-31T21:05:19.204Z,25.90
2022-12-31T21:07:32.602Z,28.20
2022-12-31T21:09:47.089Z,23.30
2022-12-31T21:12:19.427Z,24.00
2022-12-31T21:14:32.275Z,25.20
2022-12-31T21:16:47.829Z,20.80
2022-12-31T21:19:01.571Z,23.70
2022-12-31T21:21:15.413Z,21.30
2022-12-31T21:23:29.133Z,24.40
2022-12-31T21:25:43.729Z,25.20
2022-12-31T21:27:56.899Z,25.00
2022-12-31T21:30:20.294Z,18.30
2022-12-31T21:32:34.447Z,19.50
2022-12-31T21:35:06.467Z,19.90
2022-12-31T21:37:19.394Z,22.90
2022-12-31T21:39:32.018Z,20.60
2022-12-31T21:41:53.739Z,23.30
2022-12-31T21:44:06.280Z,23.40
2022-12-31T21:46:19.900Z,26.30
2022-12-31T21:48:34.762Z,18.00
2022-12-31T21:50:56.685Z,16.40
2022-12-31T21:53:16.551Z,18.70
2022-12-31T21:55:50.500Z,22.90
2022-12-31T22:00:58.252Z,18.40
2022-12-31T22:03:25.852Z,18.00
2022-12-31T22:05:48.514Z,15.40
2022-12-31T22:08:01.935Z,13.60
2022-12-31T22:10:15.738Z,16.10
2022-12-31T22:12:28.379Z,17.00
2022-12-31T22:15:14.466Z,16.50
2022-12-31T22:17:16.475Z,14.60
2022-12-31T22:19:29.623Z,17.70
2022-12-31T22:21:43.577Z,17.50
2022-12-31T22:23:59.041Z,28.60
2022-12-31T22:26:16.568Z,22.30
2022-12-31T22:28:39.139Z,23.00
2022-12-31T22:30:54.109Z,23.30
2022-12-31T22:33:12.742Z,16.60
2022-12-31T22:35:26.757Z,14.50
2022-12-31T22:37:57.079Z,14.30
2022-12-31T22:40:14.996Z,15.50
2022-12-31T22:42:28.146Z,16.30
2022-12-31T22:44:40.441Z,16.10
2022-12-31T22:46:52.850Z,20.00
2022-12-31T22:49:12.515Z,19.80
2022-12-31T22:51:55.060Z,18.70
2022-12-31T22:54:01.295Z,16.00
2022-12-31T22:56:17.118Z,19.30
2022-12-31T22:58:33.977Z,27.00
2022-12-31T23:00:49.800Z,30.10
2022-12-31T23:03:03.064Z,83.20
2022-12-31T23:05:17.643Z,130.40
2022-12-31T23:07:30.888Z,181.40
2022-12-31T23:10:02.247Z,112.30
2022-12-31T23:12:15.022Z,87.60
2022-12-31T23:14:47.712Z,69.10
2022-12-31T23:17:29.835Z,47.70
2022-12-31T23:20:12.080Z,48.30
2022-12-31T23:22:49.815Z,48.30
2022-12-31T23:25:05.620Z,46.90
2022-12-31T23:27:19.333Z,47.40
2022-12-31T23:29:32.353Z,44.60
2022-12-31T23:31:44.479Z,38.50
2022-12-31T23:33:56.340Z,36.20
2022-12-31T23:36:08.789Z,71.00
2022-12-31T23:38:20.334Z,39.20
2022-12-31T23:40:35.403Z,31.30
2022-12-31T23:42:47.226Z,26.20
2022-12-31T23:44:58.784Z,25.20
2022-12-31T23:47:10.459Z,22.40
2022-12-31T23:49:23.129Z,20.50
2022-12-31T23:51:36.675Z,19.60
2022-12-31T23:53:48.694Z,20.10
2022-12-31T23:56:13.907Z,19.30
2022-12-31T23:58:28.157Z,20.80
